Yankton Indian Reservation, South Dakota
Current Conditions -  °F | °C
As of 11:52 PM on Thursday 30 Oct 2014 (Local Time) from KVTN Reporting Station
Overcast Overcast  
Wind Chill: 24°   Ceiling: 900
Heat Index: 33°   Visibility: 10mi
Dew Point: 28°   Wind: 12mph
Humidity: 82%   Direction: 40°NE
Pressure: 30.5"   Gusts: NA
Location:  43.2328°N, 100.853°W
Report Text: KVTN 310452Z AUTO 04010KT 10SM OVC009 01/M02 A3050 RMK AO2 SLP342 T00061022
Loading
Personal Weather Stations






























Interactive Weather Map
Tropical Storm Tracking
New forecast layout! Learn more

10-Day Weather Forecast

Advertisements
Track Severe Weather on mobile